Terminal Aerodrome Forecast
Issued by NWS

Home | Current Version | Previous Version | Text Only | Print | Product List | Glossary On
Versions: 1 2 3 4 5 6 7 8 9 10 11 12 13 14 15 16 17 18 19 20 21 22 23 24 25 26 27 28 29 30 31 32 33
056
FTUS41 KBOX 092341
TAFBED
TAF
KBED 092341Z 1000/1024 00000KT P6SM SCT025 OVC050
     FM101300 VRB03KT P6SM VCSH OVC035
     FM101400 VRB03KT P6SM VCSH OVC025
     FM101500 VRB03KT P6SM VCSH OVC008
     FM102200 22004KT P6SM BKN030
     FM102300 23005KT P6SM BKN050=

USA.gov is the U.S. government's official web portal to all federal, state and local government web resources and services.